createdAt,value
2019-03-16T00:00:16.156Z,61.03
2019-03-16T00:02:45.556Z,61.31
2019-03-16T00:05:16.044Z,61.59
2019-03-16T00:07:45.447Z,61.50
2019-03-16T00:10:14.880Z,61.66
2019-03-16T00:12:44.487Z,62.26
2019-03-16T00:15:13.930Z,61.42
2019-03-16T00:17:43.336Z,61.19
2019-03-16T00:20:13.260Z,61.11
2019-03-16T00:22:42.665Z,61.61
2019-03-16T00:25:12.108Z,60.18
2019-03-16T00:27:41.613Z,59.66
2019-03-16T00:30:12.573Z,60.08
2019-03-16T00:32:41.977Z,60.10
2019-03-16T00:35:11.401Z,60.03
2019-03-16T00:37:40.800Z,60.34
2019-03-16T00:40:11.775Z,60.17
2019-03-16T00:42:41.180Z,59.45
2019-03-16T00:45:11.653Z,59.49
2019-03-16T00:47:41.061Z,60.49
2019-03-16T00:50:11.657Z,59.73
2019-03-16T00:52:41.063Z,59.65
2019-03-16T00:55:10.732Z,59.79
2019-03-16T00:57:40.064Z,60.22
2019-03-16T01:00:16.215Z,60.18
2019-03-16T01:02:45.543Z,60.17
2019-03-16T01:05:15.240Z,60.63
2019-03-16T01:07:44.637Z,60.12
2019-03-16T01:10:14.066Z,60.19
2019-03-16T01:12:43.473Z,60.43
2019-03-16T01:15:13.336Z,60.38
2019-03-16T01:17:42.745Z,61.25
2019-03-16T01:20:12.642Z,60.68
2019-03-16T01:22:41.974Z,61.32
2019-03-16T01:25:12.736Z,60.79
2019-03-16T01:27:42.147Z,60.66
2019-03-16T01:30:13.722Z,60.94
2019-03-16T01:32:43.128Z,60.82
2019-03-16T01:35:12.489Z,60.11
2019-03-16T01:37:41.895Z,60.40
2019-03-16T01:40:11.492Z,60.93
2019-03-16T01:42:40.896Z,60.76
2019-03-16T01:45:11.000Z,60.51
2019-03-16T01:47:40.432Z,60.52
2019-03-16T01:50:12.140Z,60.47
2019-03-16T01:52:41.546Z,61.10
2019-03-16T01:55:11.047Z,60.45
2019-03-16T01:57:40.553Z,60.22
2019-03-16T02:00:11.895Z,60.34
2019-03-16T02:02:54.611Z,59.77
2019-03-16T02:05:12.426Z,60.32
2019-03-16T02:07:41.826Z,60.75
2019-03-16T02:10:11.259Z,60.82
2019-03-16T02:12:40.660Z,60.62
2019-03-16T02:15:10.092Z,59.96
2019-03-16T02:17:39.502Z,61.14
2019-03-16T02:20:09.232Z,60.22
2019-03-16T02:22:38.635Z,60.40
2019-03-16T02:25:08.749Z,60.60
2019-03-16T02:27:38.138Z,60.50
2019-03-16T02:30:11.584Z,60.72
2019-03-16T02:32:40.983Z,60.99
2019-03-16T02:35:10.360Z,61.50
2019-03-16T02:37:39.765Z,61.22
2019-03-16T02:40:11.861Z,61.07
2019-03-16T02:42:41.277Z,62.13
2019-03-16T02:45:10.844Z,61.26
2019-03-16T02:47:40.221Z,61.25
2019-03-16T02:50:13.079Z,60.95
2019-03-16T02:52:42.486Z,61.67
2019-03-16T02:55:11.928Z,61.47
2019-03-16T02:57:41.434Z,61.28
2019-03-16T03:00:11.968Z,61.27
2019-03-16T03:02:41.372Z,60.88
2019-03-16T03:05:10.781Z,61.36
2019-03-16T03:07:40.185Z,61.53
2019-03-16T03:10:12.078Z,61.17
2019-03-16T03:12:41.490Z,61.05
2019-03-16T03:15:11.084Z,61.19
2019-03-16T03:17:40.517Z,61.72
2019-03-16T03:20:10.294Z,62.06
2019-03-16T03:22:39.724Z,61.53
2019-03-16T03:25:09.126Z,62.38
2019-03-16T03:27:38.571Z,62.62
2019-03-16T03:30:12.622Z,62.08
2019-03-16T03:32:42.535Z,62.63
2019-03-16T03:35:12.072Z,62.69
2019-03-16T03:37:41.826Z,62.78
2019-03-16T03:40:12.186Z,62.70
2019-03-16T03:42:41.642Z,62.86
2019-03-16T03:45:12.203Z,62.60
2019-03-16T03:47:41.639Z,63.24
2019-03-16T03:50:12.280Z,63.06
2019-03-16T03:52:41.645Z,62.84
2019-03-16T03:55:12.075Z,62.33
2019-03-16T03:57:41.507Z,62.22
2019-03-16T04:00:15.754Z,62.34
2019-03-16T04:02:45.698Z,62.42
2019-03-16T04:05:17.329Z,62.95
2019-03-16T04:07:46.756Z,62.93
2019-03-16T04:10:16.159Z,62.79
2019-03-16T04:12:45.598Z,62.54
2019-03-16T04:17:43.424Z,62.97
2019-03-16T04:20:15.094Z,63.00
2019-03-16T04:22:44.792Z,63.05
2019-03-16T04:25:14.293Z,63.24
2019-03-16T04:27:43.717Z,62.95
2019-03-16T04:30:13.189Z,62.82
2019-03-16T04:32:42.736Z,62.67
2019-03-16T04:35:12.153Z,62.71
2019-03-16T04:37:41.579Z,63.15
2019-03-16T04:40:11.538Z,62.73
2019-03-16T04:42:40.958Z,63.09
2019-03-16T04:45:11.222Z,63.13
2019-03-16T04:47:40.656Z,63.25
2019-03-16T04:50:11.762Z,63.05
2019-03-16T04:52:41.190Z,63.46
2019-03-16T04:55:10.775Z,63.62
2019-03-16T04:57:40.202Z,63.49
2019-03-16T05:00:13.725Z,63.04
2019-03-16T05:02:43.127Z,63.45
2019-03-16T05:05:12.544Z,63.70
2019-03-16T05:07:41.965Z,63.80
2019-03-16T05:10:11.721Z,63.82
2019-03-16T05:12:41.167Z,63.88
2019-03-16T05:15:10.575Z,64.27
2019-03-16T05:17:40.104Z,64.17
2019-03-16T05:20:11.439Z,64.57
2019-03-16T05:22:40.875Z,64.75
2019-03-16T05:25:11.013Z,65.38
2019-03-16T05:27:40.444Z,65.03
2019-03-16T05:30:13.534Z,64.71
2019-03-16T05:32:42.969Z,65.17
2019-03-16T05:35:12.415Z,65.37
2019-03-16T05:37:41.924Z,65.46
2019-03-16T05:40:11.484Z,65.69
2019-03-16T05:42:40.919Z,65.25
2019-03-16T05:45:11.123Z,65.81
2019-03-16T05:47:40.567Z,65.57
2019-03-16T05:50:11.716Z,65.95
2019-03-16T05:52:41.255Z,65.91
2019-03-16T05:55:10.659Z,65.45
2019-03-16T05:57:40.097Z,65.57
2019-03-16T06:00:16.008Z,66.17
2019-03-16T06:02:45.442Z,66.40
2019-03-16T06:05:14.844Z,66.33
2019-03-16T06:07:44.274Z,66.17
2019-03-16T06:10:13.785Z,66.47
2019-03-16T06:12:46.497Z,66.46
2019-03-16T06:15:14.307Z,66.67
2019-03-16T06:17:43.733Z,66.12
2019-03-16T06:20:14.175Z,65.74
2019-03-16T06:22:43.623Z,65.94
2019-03-16T06:25:12.992Z,66.38
2019-03-16T06:27:42.390Z,66.24
2019-03-16T06:30:15.731Z,65.90
2019-03-16T06:32:45.164Z,65.60
2019-03-16T06:35:24.300Z,65.80
2019-03-16T06:37:45.632Z,65.13
2019-03-16T06:40:15.030Z,65.62
2019-03-16T06:42:44.929Z,64.58
2019-03-16T06:45:14.335Z,64.73
2019-03-16T06:47:43.778Z,64.82
2019-03-16T06:50:14.425Z,64.63
2019-03-16T06:52:43.870Z,63.84
2019-03-16T06:55:13.287Z,63.89
2019-03-16T06:57:42.713Z,63.96
2019-03-16T07:00:19.682Z,64.38
2019-03-16T07:02:49.670Z,64.60
2019-03-16T07:05:23.161Z,64.69
2019-03-16T07:07:50.484Z,64.61
2019-03-16T07:10:19.891Z,64.86
2019-03-16T07:12:49.678Z,65.05
2019-03-16T07:15:19.075Z,64.65
2019-03-16T07:17:48.619Z,65.05
2019-03-16T07:20:17.955Z,64.86
2019-03-16T07:22:47.923Z,64.52
2019-03-16T07:25:17.360Z,64.42
2019-03-16T07:27:46.771Z,64.60
2019-03-16T07:30:16.670Z,63.72
2019-03-16T07:32:46.077Z,64.30
2019-03-16T07:35:15.437Z,64.69
2019-03-16T07:37:44.899Z,64.28
2019-03-16T07:40:15.292Z,64.42
2019-03-16T07:42:44.906Z,63.88
2019-03-16T07:45:14.340Z,64.16
2019-03-16T07:47:43.754Z,64.20
2019-03-16T07:50:15.822Z,64.35
2019-03-16T07:52:45.238Z,63.69
2019-03-16T07:55:14.763Z,64.28
2019-03-16T07:57:44.256Z,64.03
2019-03-16T08:00:13.687Z,63.49
2019-03-16T08:02:43.103Z,64.66
2019-03-16T08:05:18.585Z,63.98
2019-03-16T08:07:43.575Z,63.75
2019-03-16T08:10:13.020Z,63.50
2019-03-16T08:12:42.422Z,63.72
2019-03-16T08:15:11.928Z,63.60
2019-03-16T08:17:41.343Z,63.32
2019-03-16T08:20:11.149Z,63.12
2019-03-16T08:22:40.637Z,62.82
2019-03-16T08:25:10.077Z,63.34
2019-03-16T08:27:52.930Z,63.19
2019-03-16T08:30:11.346Z,63.67
2019-03-16T08:32:40.751Z,63.36
2019-03-16T08:35:10.202Z,62.05
2019-03-16T08:37:39.594Z,61.08
2019-03-16T08:40:10.359Z,60.59
2019-03-16T08:42:39.759Z,61.63
2019-03-16T08:45:12.149Z,60.85
2019-03-16T08:47:41.543Z,60.46
2019-03-16T08:50:12.046Z,60.39
2019-03-16T08:52:41.469Z,59.16
2019-03-16T08:55:10.903Z,59.83
2019-03-16T08:57:40.325Z,58.99
2019-03-16T09:00:12.547Z,59.88
2019-03-16T09:02:41.952Z,60.54
2019-03-16T09:05:11.396Z,60.80
2019-03-16T09:07:40.803Z,60.27
2019-03-16T09:10:10.616Z,59.62
2019-03-16T09:12:40.224Z,60.07
2019-03-16T09:15:14.329Z,59.41
2019-03-16T09:17:43.735Z,57.40
2019-03-16T09:20:13.166Z,58.35
2019-03-16T09:22:42.569Z,59.27
2019-03-16T09:25:12.008Z,57.84
2019-03-16T09:27:41.419Z,57.46
2019-03-16T09:30:13.263Z,56.52
2019-03-16T09:32:42.668Z,55.31
2019-03-16T09:35:12.098Z,55.64
2019-03-16T09:37:41.436Z,56.36
2019-03-16T09:40:11.072Z,56.79
2019-03-16T09:42:40.483Z,56.67
2019-03-16T09:45:11.151Z,57.73
2019-03-16T09:47:40.562Z,58.64
2019-03-16T09:50:10.452Z,58.70
2019-03-16T09:52:39.961Z,59.01
2019-03-16T09:55:10.830Z,60.00
2019-03-16T09:57:40.236Z,60.49
2019-03-16T10:00:12.374Z,60.42
2019-03-16T10:02:41.780Z,58.57
2019-03-16T10:05:11.220Z,58.15
2019-03-16T10:07:40.643Z,57.38
2019-03-16T10:10:13.558Z,57.60
2019-03-16T10:12:42.986Z,57.46
2019-03-16T10:15:13.395Z,55.40
2019-03-16T10:17:42.752Z,55.26
2019-03-16T10:20:14.958Z,55.68
2019-03-16T10:22:44.835Z,54.31
2019-03-16T10:25:14.312Z,53.64
2019-03-16T10:27:43.752Z,55.13
2019-03-16T10:30:13.995Z,54.28
2019-03-16T10:32:43.433Z,54.98
2019-03-16T10:35:12.830Z,55.65
2019-03-16T10:37:42.261Z,53.60
2019-03-16T10:40:12.605Z,53.45
2019-03-16T10:42:42.035Z,54.55
2019-03-16T10:45:12.112Z,54.26
2019-03-16T10:47:41.539Z,53.92
2019-03-16T10:50:12.966Z,52.14
2019-03-16T10:52:42.395Z,53.17
2019-03-16T10:55:11.735Z,53.19
2019-03-16T10:57:41.169Z,52.79
2019-03-16T11:00:15.775Z,52.26
2019-03-16T11:02:45.211Z,52.43
2019-03-16T11:05:14.748Z,52.69
2019-03-16T11:07:44.252Z,51.70
2019-03-16T11:10:15.234Z,51.64
2019-03-16T11:12:44.680Z,52.34
2019-03-16T11:15:14.464Z,51.13
2019-03-16T11:17:43.901Z,52.25
2019-03-16T11:20:15.712Z,51.82
2019-03-16T11:22:45.145Z,52.20
2019-03-16T11:25:14.882Z,53.11
2019-03-16T11:27:44.325Z,52.79
2019-03-16T11:30:15.077Z,53.70
2019-03-16T11:32:44.522Z,53.82
2019-03-16T11:35:13.999Z,53.59
2019-03-16T11:37:43.442Z,53.65
2019-03-16T11:40:17.511Z,52.03
2019-03-16T11:42:46.951Z,51.92
2019-03-16T11:45:17.281Z,50.70
2019-03-16T11:47:47.004Z,51.04
2019-03-16T11:50:16.345Z,51.09
2019-03-16T11:52:45.790Z,50.49
2019-03-16T11:55:15.200Z,50.96
2019-03-16T11:57:44.643Z,49.34
2019-03-16T12:00:16.778Z,48.57
2019-03-16T12:02:46.589Z,48.42
2019-03-16T12:05:16.001Z,48.60
2019-03-16T12:07:45.444Z,47.12
2019-03-16T12:10:16.481Z,47.36
2019-03-16T12:12:45.847Z,47.10
2019-03-16T12:15:15.260Z,45.10
2019-03-16T12:17:44.690Z,44.13
2019-03-16T12:20:18.569Z,42.25
2019-03-16T12:22:48.603Z,42.00
2019-03-16T12:25:18.009Z,45.97
2019-03-16T12:27:47.460Z,45.86
2019-03-16T12:30:17.364Z,46.31
2019-03-16T12:32:46.799Z,47.28
2019-03-16T12:35:16.205Z,47.76
2019-03-16T12:37:45.634Z,48.88
2019-03-16T12:40:15.584Z,49.83
2019-03-16T12:42:45.014Z,50.07
2019-03-16T12:45:15.763Z,47.97
2019-03-16T12:47:45.176Z,45.31
2019-03-16T12:50:15.078Z,46.85
2019-03-16T12:52:44.567Z,47.97
2019-03-16T12:55:14.009Z,49.44
2019-03-16T12:57:43.420Z,48.80
2019-03-16T13:00:21.849Z,49.87
2019-03-16T13:02:51.488Z,49.78
2019-03-16T13:05:20.920Z,49.44
2019-03-16T13:07:50.325Z,47.54
2019-03-16T13:10:20.208Z,42.67
2019-03-16T13:12:49.695Z,40.39
2019-03-16T13:15:19.499Z,43.66
2019-03-16T13:17:48.908Z,44.15
2019-03-16T13:20:18.340Z,45.27
2019-03-16T13:22:47.744Z,44.79
2019-03-16T13:25:17.180Z,43.13
2019-03-16T13:27:46.586Z,41.69
2019-03-16T13:30:18.225Z,41.29
2019-03-16T13:32:47.628Z,42.67
2019-03-16T13:35:16.993Z,45.33
2019-03-16T13:37:46.404Z,45.63
2019-03-16T13:40:19.490Z,43.63
2019-03-16T13:42:48.900Z,42.97
2019-03-16T13:45:18.339Z,44.05
2019-03-16T13:47:47.744Z,43.03
2019-03-16T13:50:20.794Z,45.07
2019-03-16T13:52:50.382Z,46.78
2019-03-16T13:55:19.812Z,47.52
2019-03-16T13:57:49.226Z,48.93
2019-03-16T14:00:20.836Z,48.42
2019-03-16T14:02:50.262Z,48.87
2019-03-16T14:05:19.704Z,48.04
2019-03-16T14:07:49.117Z,48.18
2019-03-16T14:10:24.320Z,48.64
2019-03-16T14:12:53.730Z,46.98
2019-03-16T14:15:23.166Z,46.51
2019-03-16T14:17:52.569Z,46.33
2019-03-16T14:20:22.282Z,45.12
2019-03-16T14:22:51.687Z,45.58
2019-03-16T14:25:21.122Z,45.18
2019-03-16T14:27:50.537Z,44.40
2019-03-16T14:30:39.362Z,45.11
2019-03-16T14:32:51.809Z,44.69
2019-03-16T14:35:21.242Z,45.13
2019-03-16T14:37:50.657Z,45.43
2019-03-16T14:40:20.092Z,46.13
2019-03-16T14:42:49.500Z,45.97
2019-03-16T14:45:19.481Z,46.51
2019-03-16T14:47:48.896Z,46.42
2019-03-16T14:50:23.176Z,45.91
2019-03-16T14:52:52.582Z,47.31
2019-03-16T14:55:22.061Z,47.56
2019-03-16T14:57:51.471Z,48.14
2019-03-16T15:00:20.899Z,48.57
2019-03-16T15:02:50.307Z,48.29
2019-03-16T15:05:19.673Z,48.56
2019-03-16T15:07:50.063Z,48.38
2019-03-16T15:10:19.802Z,49.28
2019-03-16T15:12:49.207Z,50.02
2019-03-16T15:15:19.485Z,50.07
2019-03-16T15:17:48.900Z,50.98
2019-03-16T15:20:18.328Z,51.65
2019-03-16T15:22:47.745Z,51.59
2019-03-16T15:25:17.185Z,52.17
2019-03-16T15:27:46.592Z,51.83
2019-03-16T15:30:18.443Z,51.96
2019-03-16T15:32:47.849Z,52.42
2019-03-16T15:35:17.280Z,52.34
2019-03-16T15:37:46.711Z,52.83
2019-03-16T15:40:16.584Z,53.18
2019-03-16T15:42:46.581Z,53.08
2019-03-16T15:45:21.942Z,53.00
2019-03-16T15:47:51.500Z,52.89
2019-03-16T15:50:20.941Z,53.88
2019-03-16T15:52:50.371Z,54.79
2019-03-16T15:55:19.789Z,55.82
2019-03-16T15:57:49.483Z,56.37
2019-03-16T16:00:19.795Z,56.86
2019-03-16T16:02:49.476Z,57.42
2019-03-16T16:05:18.875Z,57.74
2019-03-16T16:07:48.591Z,58.14
2019-03-16T16:10:19.800Z,58.30
2019-03-16T16:12:49.493Z,58.54
2019-03-16T16:15:18.904Z,59.06
2019-03-16T16:17:48.605Z,59.42
2019-03-16T16:20:18.555Z,58.95
2019-03-16T16:22:47.981Z,59.66
2019-03-16T16:25:17.395Z,59.72
2019-03-16T16:27:47.113Z,60.18
2019-03-16T16:30:18.636Z,60.24
2019-03-16T16:32:48.180Z,60.92
2019-03-16T16:35:17.700Z,61.26
2019-03-16T16:37:47.124Z,61.95
2019-03-16T16:40:17.665Z,62.37
2019-03-16T16:42:47.092Z,62.42
2019-03-16T16:45:19.775Z,63.06
2019-03-16T16:47:49.503Z,63.28
2019-03-16T16:50:20.777Z,62.81
2019-03-16T16:52:50.213Z,64.06
2019-03-16T16:55:19.615Z,64.16
2019-03-16T16:57:49.491Z,65.41
2019-03-16T17:00:23.754Z,66.23
2019-03-16T17:02:53.179Z,67.39
2019-03-16T17:05:22.587Z,68.00
2019-03-16T17:07:52.021Z,68.80
2019-03-16T17:10:21.432Z,70.14
2019-03-16T17:12:50.859Z,70.44
2019-03-16T17:15:23.775Z,72.00
2019-03-16T17:17:53.214Z,72.91
2019-03-16T17:20:22.625Z,73.98
2019-03-16T17:22:52.062Z,74.98
2019-03-16T17:25:21.478Z,75.71
2019-03-16T17:27:54.068Z,76.43
2019-03-16T17:30:33.110Z,77.52
2019-03-16T17:33:02.550Z,78.99
2019-03-16T17:35:31.966Z,79.97
2019-03-16T17:38:01.412Z,80.57
2019-03-16T17:40:30.837Z,79.89
2019-03-16T17:43:00.282Z,81.37
2019-03-16T17:45:29.706Z,82.03
2019-03-16T17:47:59.250Z,82.39
2019-03-16T17:50:28.662Z,82.83
2019-03-16T17:52:58.041Z,82.86
2019-03-16T17:55:27.457Z,82.55
2019-03-16T17:57:56.900Z,83.50
2019-03-16T18:00:26.314Z,83.24
2019-03-16T18:02:55.761Z,82.83
2019-03-16T18:05:25.175Z,83.76
2019-03-16T18:07:54.604Z,83.50
2019-03-16T18:10:24.017Z,83.54
2019-03-16T18:12:53.465Z,83.61
2019-03-16T18:15:22.874Z,84.08
2019-03-16T18:17:52.334Z,84.11
2019-03-16T18:20:21.749Z,84.53
2019-03-16T18:22:51.506Z,84.19
2019-03-16T18:25:20.927Z,84.81
2019-03-16T18:27:50.367Z,85.12
2019-03-16T18:30:23.683Z,85.60
2019-03-16T18:32:53.146Z,85.52
2019-03-16T18:35:22.593Z,85.88
2019-03-16T18:37:52.008Z,85.92
2019-03-16T18:40:21.445Z,86.29
2019-03-16T18:42:50.863Z,86.35
2019-03-16T18:45:28.321Z,86.96
2019-03-16T18:47:57.746Z,86.85
2019-03-16T18:50:27.170Z,87.58
2019-03-16T18:52:56.619Z,87.48
2019-03-16T18:55:26.032Z,87.84
2019-03-16T18:57:55.491Z,87.59
2019-03-16T19:00:24.914Z,88.11
2019-03-16T19:02:54.363Z,88.02
2019-03-16T19:05:23.813Z,88.02
2019-03-16T19:07:53.227Z,88.03
2019-03-16T19:10:22.667Z,88.58
2019-03-16T19:12:52.078Z,88.95
2019-03-16T19:15:21.514Z,88.69
2019-03-16T19:17:58.803Z,89.04
2019-03-16T19:20:22.062Z,89.30
2019-03-16T19:22:51.568Z,89.62
2019-03-16T19:25:21.840Z,89.62
2019-03-16T19:27:51.478Z,89.36
2019-03-16T19:30:20.920Z,89.04
2019-03-16T19:32:50.351Z,89.19
2019-03-16T19:35:19.865Z,89.17
2019-03-16T19:37:49.282Z,89.62
2019-03-16T19:40:23.538Z,89.82
2019-03-16T19:42:52.948Z,89.99
2019-03-16T19:45:22.381Z,89.53
2019-03-16T19:47:51.801Z,89.68
2019-03-16T19:50:21.508Z,89.80
2019-03-16T19:52:50.922Z,89.75
2019-03-16T19:55:20.374Z,89.85
2019-03-16T19:57:49.793Z,90.26
2019-03-16T20:00:19.505Z,90.23
2019-03-16T20:02:51.355Z,90.50
2019-03-16T20:05:19.989Z,90.67
2019-03-16T20:07:49.407Z,90.84
2019-03-16T20:10:21.910Z,91.04
2019-03-16T20:12:53.168Z,91.27
2019-03-16T20:15:22.449Z,91.28
2019-03-16T20:17:51.862Z,91.29
2019-03-16T20:20:21.496Z,91.45
2019-03-16T20:22:50.841Z,91.62
2019-03-16T20:25:20.281Z,91.66
2019-03-16T20:27:49.693Z,91.82
2019-03-16T20:30:26.356Z,91.48
2019-03-16T20:33:03.067Z,91.77
2019-03-16T20:35:21.765Z,91.91
2019-03-16T20:37:51.183Z,92.05
2019-03-16T20:40:20.625Z,92.32
2019-03-16T20:42:50.288Z,92.30
2019-03-16T20:45:19.899Z,92.20
2019-03-16T20:47:49.479Z,92.13
2019-03-16T20:50:19.433Z,92.00
2019-03-16T20:52:48.884Z,91.81
2019-03-16T20:55:18.569Z,91.66
2019-03-16T20:57:48.023Z,91.78
2019-03-16T21:00:18.272Z,91.92
2019-03-16T21:02:47.748Z,92.35
2019-03-16T21:05:17.344Z,92.45
2019-03-16T21:07:47.121Z,92.54
2019-03-16T21:10:16.581Z,92.35
2019-03-16T21:12:46.572Z,92.56
2019-03-16T21:15:17.355Z,92.52
2019-03-16T21:17:47.073Z,92.60
2019-03-16T21:20:18.582Z,93.00
2019-03-16T21:22:48.016Z,93.17
2019-03-16T21:25:17.670Z,93.20
2019-03-16T21:27:47.109Z,93.36
2019-03-16T21:30:17.463Z,93.32
2019-03-16T21:32:46.906Z,93.27
2019-03-16T21:35:16.247Z,93.26
2019-03-16T21:37:45.692Z,93.34
2019-03-16T21:40:15.482Z,93.29
2019-03-16T21:42:44.936Z,93.19
2019-03-16T21:45:14.485Z,93.35
2019-03-16T21:47:43.929Z,93.32
2019-03-16T21:50:14.017Z,93.55
2019-03-16T21:52:44.770Z,93.38
2019-03-16T21:55:14.796Z,93.36
2019-03-16T21:57:44.230Z,93.36
2019-03-16T22:00:14.494Z,93.37
2019-03-16T22:02:43.930Z,93.36
2019-03-16T22:05:13.285Z,93.36
2019-03-16T22:07:42.718Z,93.36
2019-03-16T22:10:13.473Z,93.31
2019-03-16T22:12:42.919Z,93.26
2019-03-16T22:15:13.535Z,93.45
2019-03-16T22:17:42.975Z,93.53
2019-03-16T22:20:18.593Z,93.31
2019-03-16T22:22:48.032Z,93.28
2019-03-16T22:25:17.452Z,93.16
2019-03-16T22:27:47.371Z,93.23
2019-03-16T22:30:17.223Z,93.06
2019-03-16T22:32:46.663Z,92.96
2019-03-16T22:35:16.029Z,93.18
2019-03-16T22:37:45.377Z,93.05
2019-03-16T22:40:15.140Z,93.04
2019-03-16T22:42:44.820Z,92.97
2019-03-16T22:45:14.586Z,93.08
2019-03-16T22:47:44.026Z,92.94
2019-03-16T22:50:18.333Z,92.87
2019-03-16T22:52:47.769Z,93.05
2019-03-16T22:55:17.184Z,93.45
2019-03-16T22:57:46.829Z,93.78
2019-03-16T23:00:21.503Z,94.06
2019-03-16T23:02:50.922Z,94.05
2019-03-16T23:05:20.334Z,94.24
2019-03-16T23:07:49.778Z,94.48
2019-03-16T23:10:19.190Z,94.47
2019-03-16T23:12:48.624Z,94.61
2019-03-16T23:15:18.033Z,94.67
2019-03-16T23:17:47.726Z,94.57
2019-03-16T23:20:17.350Z,94.62
2019-03-16T23:22:46.837Z,94.57
2019-03-16T23:25:16.258Z,94.68
2019-03-16T23:27:45.784Z,94.65
2019-03-16T23:30:15.176Z,94.67
2019-03-16T23:32:44.839Z,94.62
2019-03-16T23:35:14.255Z,94.53
2019-03-16T23:37:43.687Z,94.45
2019-03-16T23:40:13.565Z,94.35
2019-03-16T23:42:42.985Z,94.43
2019-03-16T23:45:13.076Z,94.47
2019-03-16T23:47:42.495Z,94.40
2019-03-16T23:50:12.979Z,94.47
2019-03-16T23:52:42.396Z,94.24
2019-03-16T23:55:11.853Z,94.17
2019-03-16T23:57:41.268Z,94.15
